Time;durP1;ratioP1;P1;durP2;ratioP2;P2;SDS_P1;SDS_P2;PMS_P1;PMS_P2;Temp;Humidity;BMP_temperature;BMP_pressure;BME280_temperature;BME280_humidity;BME280_pressure;Samples;Min_cycle;Max_cycle;Signal;HPM_P1;HPM_P2
2022/05/17 00:00:07;;;;;;;1.60;0.88;;;22.20;55.90;;;;;;4949042;28;90600;-85
2022/05/17 00:02:33;;;;;;;2.75;1.20;;;22.20;56.10;;;;;;4934411;28;87456;-85
2022/05/17 00:04:59;;;;;;;3.17;1.45;;;22.20;55.90;;;;;;4949616;28;89065;-84
2022/05/17 00:07:24;;;;;;;1.63;1.27;;;22.20;55.90;;;;;;4947186;28;90375;-85
2022/05/17 00:09:50;;;;;;;1.45;1.05;;;22.20;56.00;;;;;;4950177;28;89146;-85
2022/05/17 00:12:15;;;;;;;1.98;0.98;;;22.20;56.80;;;;;;4948904;28;87225;-83
2022/05/17 00:14:41;;;;;;;1.58;1.02;;;22.20;55.90;;;;;;4949040;28;89322;-86
2022/05/17 00:17:09;;;;;;;1.95;1.20;;;22.20;55.90;;;;;;4949232;28;89306;-85
2022/05/17 00:19:35;;;;;;;2.08;1.30;;;22.20;55.80;;;;;;4950509;28;87672;-83
2022/05/17 00:22:01;;;;;;;2.30;1.10;;;22.20;55.90;;;;;;4949670;28;86992;-85
2022/05/17 00:24:27;;;;;;;1.48;1.05;;;22.10;55.90;;;;;;4950957;28;86910;-85
2022/05/17 00:26:55;;;;;;;2.50;1.08;;;22.20;55.90;;;;;;4948713;28;90639;-85
2022/05/17 00:29:21;;;;;;;2.85;1.15;;;22.10;55.90;;;;;;4950479;28;87699;-86
2022/05/17 00:31:47;;;;;;;2.30;0.85;;;22.10;56.20;;;;;;4950407;28;88861;-86
2022/05/17 00:34:13;;;;;;;3.88;1.00;;;22.10;56.00;;;;;;4948013;28;89632;-86
2022/05/17 00:36:40;;;;;;;0.93;0.82;;;22.10;55.90;;;;;;4948854;28;90638;-85
2022/05/17 00:39:06;;;;;;;1.67;0.80;;;22.10;55.90;;;;;;4950876;28;87188;-86
2022/05/17 00:41:32;;;;;;;2.58;1.17;;;22.10;56.00;;;;;;4948545;28;87738;-86
2022/05/17 00:46:54;;;;;;;1.75;1.00;;;22.20;56.20;;;;;;4949705;28;88266;-85
2022/05/17 00:49:33;;;;;;;1.88;1.17;;;22.10;56.20;;;;;;4950836;28;87712;-86
2022/05/17 00:52:03;;;;;;;1.55;1.17;;;22.10;56.00;;;;;;4949222;28;87608;-85
2022/05/17 00:54:30;;;;;;;2.35;1.35;;;22.10;56.10;;;;;;4950342;28;88014;-86
2022/05/17 00:57:04;;;;;;;0.98;0.88;;;22.10;56.00;;;;;;4949375;28;89554;-85
2022/05/17 00:59:31;;;;;;;2.67;1.10;;;22.10;56.60;;;;;;4937530;28;92681;-85
2022/05/17 01:01:57;;;;;;;1.77;1.02;;;22.10;55.80;;;;;;4949640;28;87419;-86
2022/05/17 01:04:25;;;;;;;1.48;1.00;;;22.10;56.00;;;;;;4950384;28;87502;-86
2022/05/17 01:07:00;;;;;;;2.30;1.25;;;22.10;55.90;;;;;;4949048;28;90340;-86
2022/05/17 01:09:26;;;;;;;1.55;1.08;;;22.10;55.90;;;;;;4949416;28;88374;-86
2022/05/17 01:11:51;;;;;;;1.70;1.20;;;22.10;55.90;;;;;;4948562;28;87945;-86
2022/05/17 01:17:03;;;;;;;1.48;1.08;;;22.10;55.90;;;;;;4950614;28;87337;-86
2022/05/17 01:19:28;;;;;;;4.07;1.90;;;22.10;55.90;;;;;;4947154;28;90612;-86
2022/05/17 01:21:54;;;;;;;1.88;1.30;;;22.10;56.00;;;;;;4948717;28;88393;-85
2022/05/17 01:24:20;;;;;;;1.30;1.08;;;22.10;55.90;;;;;;4949315;28;87523;-86
2022/05/17 01:26:53;;;;;;;0.90;0.73;;;22.10;56.10;;;;;;4960684;28;89400;-86
2022/05/17 01:29:18;;;;;;;1.05;0.90;;;22.10;56.10;;;;;;4949237;28;87795;-86
2022/05/17 01:31:45;;;;;;;1.50;1.10;;;22.10;56.20;;;;;;4947038;28;87015;-85
2022/05/17 01:34:11;;;;;;;1.30;0.90;;;22.10;55.90;;;;;;4946552;28;89337;-85
2022/05/17 01:36:39;;;;;;;1.13;1.00;;;22.10;56.00;;;;;;4949617;28;87719;-86
2022/05/17 01:39:05;;;;;;;1.10;0.98;;;22.10;56.10;;;;;;4949077;28;87790;-86
2022/05/17 01:41:31;;;;;;;1.35;0.70;;;22.10;55.90;;;;;;4948931;28;87703;-85
2022/05/17 01:43:57;;;;;;;1.13;1.00;;;22.10;55.90;;;;;;4948900;28;88147;-86
2022/05/17 01:46:23;;;;;;;2.58;1.40;;;22.10;55.80;;;;;;4948339;28;88668;-86
2022/05/17 01:48:52;;;;;;;1.63;0.82;;;22.10;55.90;;;;;;4947342;28;91590;-85
2022/05/17 01:51:19;;;;;;;1.35;0.90;;;22.10;56.00;;;;;;4948212;28;88087;-86
2022/05/17 01:53:45;;;;;;;1.27;0.85;;;22.10;55.90;;;;;;4949298;28;87788;-86
2022/05/17 01:56:11;;;;;;;1.45;1.00;;;22.10;56.00;;;;;;4949643;28;88086;-85
2022/05/17 01:58:37;;;;;;;1.00;0.90;;;22.10;56.00;;;;;;4948037;28;91566;-85
2022/05/17 02:01:06;;;;;;;1.60;0.90;;;22.00;56.00;;;;;;4948730;28;87952;-85
2022/05/17 02:03:31;;;;;;;1.05;0.93;;;22.10;56.10;;;;;;4949910;28;86794;-86
2022/05/17 02:05:57;;;;;;;1.48;0.80;;;22.10;56.10;;;;;;4948371;28;87817;-85
2022/05/17 02:08:23;;;;;;;1.30;0.90;;;22.00;56.00;;;;;;4949759;28;87405;-85
2022/05/17 02:10:49;;;;;;;1.80;0.98;;;22.00;56.00;;;;;;4948363;28;88770;-86
2022/05/17 02:13:17;;;;;;;1.63;0.88;;;22.00;56.10;;;;;;4946518;28;89787;-85
2022/05/17 02:15:43;;;;;;;1.13;0.80;;;22.10;56.20;;;;;;4949319;28;87342;-86
2022/05/17 02:18:09;;;;;;;1.52;0.90;;;22.00;56.10;;;;;;4949138;28;87345;-86
2022/05/17 02:20:35;;;;;;;1.42;0.90;;;22.00;56.20;;;;;;4949467;28;87563;-86
2022/05/17 02:23:01;;;;;;;1.52;1.10;;;22.00;56.20;;;;;;4948107;28;87104;-87
2022/05/17 02:25:27;;;;;;;1.15;0.98;;;22.00;56.10;;;;;;4946894;28;90244;-86
2022/05/17 02:27:53;;;;;;;1.13;0.88;;;22.00;56.20;;;;;;5002750;23;90169;-79
2022/05/17 02:30:19;;;;;;;1.00;0.90;;;22.00;56.20;;;;;;4946556;28;87628;-79
2022/05/17 02:32:44;;;;;;;1.95;0.93;;;22.00;56.40;;;;;;4946390;28;87247;-79
2022/05/17 02:35:18;;;;;;;1.48;0.98;;;22.00;56.20;;;;;;4945774;28;91618;-79
2022/05/17 02:37:43;;;;;;;1.00;0.90;;;22.10;56.20;;;;;;4946927;28;91667;-78
2022/05/17 02:40:09;;;;;;;1.25;1.10;;;22.00;56.10;;;;;;4948285;28;87969;-78
2022/05/17 02:42:35;;;;;;;1.75;1.05;;;22.00;56.10;;;;;;4949137;28;87594;-79
2022/05/17 02:45:01;;;;;;;1.20;0.90;;;22.00;56.30;;;;;;4947948;28;87971;-77
2022/05/17 02:47:27;;;;;;;0.95;0.93;;;22.00;56.10;;;;;;4948144;28;89354;-79
2022/05/17 02:49:53;;;;;;;1.52;1.10;;;22.00;56.10;;;;;;4951848;28;87673;-78
2022/05/17 02:52:18;;;;;;;1.08;0.70;;;22.00;56.90;;;;;;4951313;28;86846;-78
2022/05/17 02:54:44;;;;;;;1.00;0.90;;;22.00;56.20;;;;;;4949337;28;90263;-78
2022/05/17 02:57:10;;;;;;;0.85;0.82;;;22.00;56.20;;;;;;4949865;28;87861;-78
2022/05/17 02:59:36;;;;;;;1.27;0.98;;;22.00;56.10;;;;;;4950535;28;88292;-78
2022/05/17 03:02:02;;;;;;;2.13;0.90;;;22.00;55.90;;;;;;4950904;28;87751;-78
2022/05/17 03:04:28;;;;;;;1.67;0.93;;;22.00;56.00;;;;;;4951354;28;87816;-79
2022/05/17 03:06:54;;;;;;;1.00;0.80;;;22.00;56.10;;;;;;4951589;28;87688;-78
2022/05/17 03:09:20;;;;;;;2.45;1.30;;;22.00;56.60;;;;;;4952003;28;87663;-78
2022/05/17 03:11:45;;;;;;;1.00;0.90;;;22.00;56.80;;;;;;4950776;28;87654;-78
2022/05/17 03:14:13;;;;;;;1.77;1.00;;;22.00;56.60;;;;;;4950515;28;89043;-78
2022/05/17 03:16:40;;;;;;;1.77;0.90;;;22.00;56.80;;;;;;4949572;28;88915;-78
2022/05/17 03:19:06;;;;;;;0.93;0.80;;;22.00;56.70;;;;;;4950829;28;88116;-79
2022/05/17 03:21:33;;;;;;;1.40;0.85;;;22.00;56.90;;;;;;4951600;28;87197;-78
2022/05/17 03:24:01;;;;;;;1.38;0.82;;;22.00;56.70;;;;;;4951462;28;89128;-78
2022/05/17 03:26:28;;;;;;;1.60;0.80;;;22.00;56.90;;;;;;4950988;28;88798;-78
2022/05/17 03:28:56;;;;;;;1.45;1.00;;;22.00;56.90;;;;;;4951854;28;87761;-78
2022/05/17 03:31:22;;;;;;;1.80;1.00;;;22.00;56.80;;;;;;4951050;28;87474;-79
2022/05/17 03:33:48;;;;;;;1.98;1.13;;;22.00;56.90;;;;;;4951248;28;88101;-78
2022/05/17 03:36:14;;;;;;;1.05;0.85;;;22.00;56.90;;;;;;4950357;28;87400;-79
2022/05/17 03:38:39;;;;;;;1.52;1.05;;;22.00;56.80;;;;;;4951366;28;87915;-78
2022/05/17 03:41:05;;;;;;;0.80;0.80;;;22.00;56.80;;;;;;4950971;28;86806;-78
2022/05/17 03:43:31;;;;;;;1.10;0.90;;;22.00;56.80;;;;;;4951374;28;88061;-78
2022/05/17 03:45:58;;;;;;;1.13;1.00;;;21.90;56.80;;;;;;4950674;28;87559;-78
2022/05/17 03:48:25;;;;;;;1.02;0.75;;;21.90;56.80;;;;;;4950760;28;88806;-78
2022/05/17 03:50:52;;;;;;;1.00;0.80;;;22.00;56.90;;;;;;4950330;28;88303;-78
2022/05/17 03:53:18;;;;;;;0.80;0.77;;;21.90;56.80;;;;;;4950820;28;88084;-78
2022/05/17 03:55:44;;;;;;;0.90;0.80;;;21.90;56.80;;;;;;4950536;28;87275;-78
2022/05/17 03:58:09;;;;;;;1.10;0.82;;;21.90;57.00;;;;;;4950877;28;88111;-79
2022/05/17 04:00:36;;;;;;;1.75;1.00;;;21.90;56.80;;;;;;4950144;28;87514;-78
2022/05/17 04:03:02;;;;;;;1.55;1.02;;;21.90;57.00;;;;;;4950724;28;87724;-78
2022/05/17 04:05:27;;;;;;;1.20;0.90;;;21.90;56.90;;;;;;4951643;28;87813;-79
2022/05/17 04:08:02;;;;;;;0.70;0.70;;;21.90;57.00;;;;;;4950531;28;87580;-78
2022/05/17 04:10:28;;;;;;;1.95;1.05;;;21.90;57.00;;;;;;4950524;28;87476;-79
2022/05/17 04:12:54;;;;;;;1.48;0.90;;;21.90;56.90;;;;;;4950441;28;89165;-78
2022/05/17 04:15:22;;;;;;;1.60;0.80;;;22.00;56.90;;;;;;4950491;28;87502;-78
2022/05/17 04:17:50;;;;;;;1.50;0.87;;;21.90;56.90;;;;;;4948602;28;88085;-79
2022/05/17 04:20:17;;;;;;;1.08;0.70;;;21.90;56.90;;;;;;4949634;28;87025;-78
2022/05/17 04:22:48;;;;;;;1.23;0.80;;;21.90;56.90;;;;;;4950828;28;87904;-78
2022/05/17 04:25:17;;;;;;;1.75;1.08;;;21.90;56.90;;;;;;4951011;28;87238;-78
2022/05/17 04:27:43;;;;;;;1.45;0.93;;;21.90;56.90;;;;;;4950433;28;87578;-78
2022/05/17 04:30:11;;;;;;;1.27;0.77;;;21.90;56.90;;;;;;4950449;28;86890;-78
2022/05/17 04:32:37;;;;;;;1.02;0.88;;;21.90;56.90;;;;;;4949262;28;90615;-79
2022/05/17 04:35:03;;;;;;;1.08;0.95;;;21.90;57.10;;;;;;4949878;28;87960;-78
2022/05/17 04:37:29;;;;;;;1.58;0.90;;;21.90;56.80;;;;;;4950159;28;88671;-78
2022/05/17 04:39:55;;;;;;;1.13;0.70;;;21.90;56.90;;;;;;4949289;28;88115;-79
2022/05/17 04:42:30;;;;;;;0.80;0.80;;;21.90;57.10;;;;;;4948718;28;90072;-79
2022/05/17 04:44:56;;;;;;;1.10;0.85;;;21.90;56.90;;;;;;4948677;28;88279;-79
2022/05/17 04:47:22;;;;;;;1.20;0.88;;;21.90;57.30;;;;;;4951010;28;88064;-79
2022/05/17 04:49:48;;;;;;;0.70;0.70;;;21.90;57.10;;;;;;4949764;28;87356;-79
2022/05/17 04:52:13;;;;;;;0.85;0.70;;;21.90;57.10;;;;;;4950014;28;88432;-78
2022/05/17 04:54:41;;;;;;;1.95;0.90;;;21.90;57.10;;;;;;4950201;28;88504;-78
2022/05/17 04:57:07;;;;;;;1.05;0.90;;;21.90;57.10;;;;;;4948377;28;87498;-79
2022/05/17 04:59:33;;;;;;;1.33;0.75;;;21.90;57.20;;;;;;4949268;28;88085;-79
2022/05/17 05:01:58;;;;;;;1.05;0.70;;;21.90;57.00;;;;;;4949175;28;89050;-79
2022/05/17 05:04:24;;;;;;;1.10;0.70;;;21.90;57.10;;;;;;4949146;28;88128;-79
2022/05/17 05:06:50;;;;;;;1.67;0.70;;;21.90;57.20;;;;;;4947957;28;87890;-79
2022/05/17 05:09:15;;;;;;;1.52;0.98;;;21.90;57.10;;;;;;4947735;28;89508;-78
2022/05/17 05:11:41;;;;;;;0.60;0.60;;;21.90;57.10;;;;;;4949762;28;87817;-78
2022/05/17 05:14:07;;;;;;;0.80;0.70;;;21.90;57.10;;;;;;4948742;28;87431;-78
2022/05/17 05:16:35;;;;;;;1.15;0.80;;;21.90;57.10;;;;;;4948188;28;86919;-79
2022/05/17 05:19:01;;;;;;;0.90;0.80;;;21.90;57.10;;;;;;4949747;28;87065;-79
2022/05/17 05:21:26;;;;;;;1.23;0.90;;;21.90;57.00;;;;;;4949468;28;87637;-79
2022/05/17 05:24:00;;;;;;;1.48;1.00;;;21.90;56.90;;;;;;4949246;28;88531;-78
2022/05/17 05:26:26;;;;;;;1.00;0.80;;;21.90;57.00;;;;;;4947270;28;91162;-79
2022/05/17 05:28:52;;;;;;;1.55;0.98;;;21.90;57.10;;;;;;4949116;28;87879;-79
2022/05/17 05:31:18;;;;;;;1.02;0.80;;;21.90;57.10;;;;;;4949493;28;87763;-79
2022/05/17 05:33:43;;;;;;;1.17;0.80;;;21.90;57.10;;;;;;4949497;28;87352;-78
2022/05/17 05:36:10;;;;;;;0.88;0.77;;;21.90;57.20;;;;;;4948186;28;87928;-80
2022/05/17 05:38:35;;;;;;;1.17;1.08;;;21.90;57.20;;;;;;4947967;28;87708;-79
2022/05/17 05:41:01;;;;;;;0.82;0.82;;;21.90;57.30;;;;;;4947994;28;88001;-79
2022/05/17 05:43:27;;;;;;;0.90;0.80;;;21.90;57.30;;;;;;4948852;28;87270;-78
2022/05/17 05:45:53;;;;;;;1.00;0.90;;;21.90;57.40;;;;;;4948394;28;87628;-79
2022/05/17 05:48:19;;;;;;;0.88;0.80;;;21.90;57.30;;;;;;4948468;28;87467;-79
2022/05/17 05:50:47;;;;;;;1.35;0.88;;;21.90;57.30;;;;;;4947759;28;88879;-79
2022/05/17 05:53:13;;;;;;;0.70;0.70;;;21.90;57.30;;;;;;4949146;28;88395;-79
2022/05/17 05:55:40;;;;;;;0.82;0.70;;;21.90;57.30;;;;;;4949278;28;88169;-78
2022/05/17 05:58:07;;;;;;;1.35;0.82;;;21.80;57.40;;;;;;4947164;28;88038;-78
2022/05/17 06:00:35;;;;;;;1.30;0.70;;;21.90;57.30;;;;;;4948347;28;88075;-78
2022/05/17 06:03:01;;;;;;;0.77;0.63;;;21.80;57.30;;;;;;4948958;28;87248;-79
2022/05/17 06:05:30;;;;;;;0.77;0.70;;;21.90;57.30;;;;;;4949666;28;87662;-78
2022/05/17 06:07:55;;;;;;;0.67;0.60;;;21.90;57.30;;;;;;4948431;28;87095;-79
2022/05/17 06:10:22;;;;;;;0.82;0.73;;;21.90;57.40;;;;;;4946192;28;87831;-79
2022/05/17 06:12:48;;;;;;;2.47;1.20;;;21.80;57.30;;;;;;4948986;28;88333;-79
2022/05/17 06:15:14;;;;;;;3.22;1.00;;;21.90;57.10;;;;;;4946860;28;88892;-78
2022/05/17 06:17:40;;;;;;;1.85;0.95;;;21.90;57.10;;;;;;4948682;28;87468;-79
2022/05/17 06:20:11;;;;;;;1.38;0.80;;;21.90;57.20;;;;;;4949037;28;88202;-78
2022/05/17 06:22:38;;;;;;;2.72;0.85;;;21.90;57.00;;;;;;4952265;28;87926;-79
2022/05/17 06:25:05;;;;;;;1.60;1.25;;;21.90;57.00;;;;;;4950875;28;88055;-78
2022/05/17 06:27:30;;;;;;;5.38;1.65;;;21.90;57.10;;;;;;4950401;28;87371;-78
2022/05/17 06:29:56;;;;;;;6.70;1.63;;;21.90;57.40;;;;;;4951530;28;87701;-79
2022/05/17 06:32:22;;;;;;;2.28;1.67;;;21.90;57.50;;;;;;4951592;28;87381;-79
2022/05/17 06:34:47;;;;;;;12.45;2.97;;;21.90;58.00;;;;;;4950556;28;87534;-79
2022/05/17 06:37:13;;;;;;;8.93;2.40;;;21.90;58.10;;;;;;4954253;28;87726;-78
2022/05/17 06:39:39;;;;;;;5.50;2.35;;;21.90;58.00;;;;;;4953920;28;88518;-79
2022/05/17 06:42:06;;;;;;;11.52;2.38;;;21.80;57.80;;;;;;4951126;28;88019;-79
2022/05/17 06:44:32;;;;;;;13.95;3.38;;;21.80;58.00;;;;;;4948994;28;87719;-78
2022/05/17 06:47:01;;;;;;;7.45;2.58;;;21.80;57.90;;;;;;4952578;28;86858;-78
2022/05/17 06:49:36;;;;;;;;;;;21.70;58.10;;;;;;4952284;28;88951;-78
2022/05/17 06:52:02;;;;;;;8.40;2.80;;;21.70;58.10;;;;;;4951427;28;90134;-78
2022/05/17 06:54:28;;;;;;;16.42;3.22;;;21.70;58.20;;;;;;4944526;28;87706;-79
2022/05/17 06:56:54;;;;;;;20.58;2.88;;;21.70;58.20;;;;;;4951823;28;87119;-76
2022/05/17 06:59:21;;;;;;;12.48;3.17;;;21.70;58.20;;;;;;4951313;28;87902;-79
2022/05/17 07:01:49;;;;;;;14.75;2.95;;;21.70;58.20;;;;;;4951120;28;88382;-78
2022/05/17 07:04:15;;;;;;;14.57;3.15;;;21.70;58.20;;;;;;4949859;28;87889;-78
2022/05/17 07:06:41;;;;;;;20.38;3.47;;;21.60;58.00;;;;;;4950154;28;87904;-78
2022/05/17 07:09:07;;;;;;;21.33;3.55;;;21.60;58.20;;;;;;4951449;28;87980;-78
2022/05/17 07:14:18;;;;;;;14.00;3.08;;;21.70;58.30;;;;;;4960856;28;87910;-84
2022/05/17 07:16:52;;;;;;;14.52;2.75;;;21.70;58.40;;;;;;4957467;28;89110;-81
2022/05/17 07:19:18;;;;;;;12.57;2.90;;;21.80;58.40;;;;;;4958375;28;88084;-81
2022/05/17 07:21:44;;;;;;;13.55;3.10;;;21.80;58.40;;;;;;4952469;28;87174;-82
2022/05/17 07:24:10;;;;;;;13.88;3.40;;;21.90;58.40;;;;;;4955173;28;87659;-81
2022/05/17 07:26:35;;;;;;;12.75;3.58;;;21.90;58.50;;;;;;4959065;28;88024;-83
2022/05/17 07:29:01;;;;;;;17.42;3.30;;;21.90;58.40;;;;;;4953621;28;88428;-82
2022/05/17 07:31:26;;;;;;;7.80;2.60;;;21.90;58.30;;;;;;4959599;28;87522;-82
2022/05/17 07:33:52;;;;;;;12.75;3.17;;;22.00;58.50;;;;;;4954039;28;87635;-82
2022/05/17 07:36:18;;;;;;;13.20;3.13;;;22.00;58.60;;;;;;4960397;28;87249;-87
2022/05/17 07:38:44;;;;;;;13.35;3.47;;;22.00;58.40;;;;;;4963170;28;87615;-85
2022/05/17 07:41:09;;;;;;;18.17;4.00;;;22.10;59.00;;;;;;4958049;28;89314;-86
2022/05/17 07:43:35;;;;;;;9.32;3.08;;;22.10;59.20;;;;;;4959181;28;87331;-86
2022/05/17 07:46:01;;;;;;;13.05;3.05;;;22.10;59.10;;;;;;4960952;28;88591;-86
2022/05/17 07:48:27;;;;;;;12.00;3.15;;;22.10;58.90;;;;;;4959003;28;88100;-86
2022/05/17 07:50:53;;;;;;;77.38;14.73;;;22.10;58.90;;;;;;4957067;28;87038;-86
2022/05/17 07:53:21;;;;;;;46.97;11.05;;;22.10;58.80;;;;;;4952159;28;88092;-85
2022/05/17 07:55:48;;;;;;;41.53;8.93;;;22.10;58.80;;;;;;4959487;28;87922;-85
2022/05/17 07:58:14;;;;;;;32.17;8.05;;;22.20;59.00;;;;;;4959382;28;90228;-86
2022/05/17 08:00:41;;;;;;;34.65;5.85;;;22.10;59.10;;;;;;4962208;28;87814;-86
2022/05/17 08:03:18;;;;;;;22.65;6.00;;;22.10;59.30;;;;;;4963494;28;87155;-86
2022/05/17 08:05:44;;;;;;;18.80;5.18;;;22.10;59.10;;;;;;4958945;28;88012;-90
2022/05/17 08:08:11;;;;;;;21.42;5.13;;;22.10;59.20;;;;;;4963011;28;88117;-90
2022/05/17 08:10:37;;;;;;;17.13;5.15;;;22.20;59.70;;;;;;4961526;28;90209;-89
2022/05/17 08:13:03;;;;;;;17.25;4.70;;;22.20;59.80;;;;;;4960301;28;87258;-86
2022/05/17 08:15:30;;;;;;;17.02;4.22;;;22.20;60.30;;;;;;4959795;28;87987;-86
2022/05/17 08:17:56;;;;;;;13.40;4.20;;;22.20;60.70;;;;;;4959032;28;91917;-86
2022/05/17 08:20:22;;;;;;;10.55;3.90;;;22.20;60.20;;;;;;4954174;28;91427;-85
2022/05/17 08:22:48;;;;;;;11.63;4.50;;;22.10;60.20;;;;;;4958080;28;87273;-86
2022/05/17 08:28:20;;;;;;;12.45;4.15;;;22.10;60.50;;;;;;4959687;28;87323;-86
2022/05/17 08:30:47;;;;;;;10.30;4.07;;;22.10;61.10;;;;;;4966729;28;90871;-86
2022/05/17 08:33:15;;;;;;;10.63;3.85;;;22.10;62.20;;;;;;4953276;28;87330;-85
2022/05/17 08:35:51;;;;;;;9.13;3.63;;;22.10;61.00;;;;;;4959416;28;88304;-85
2022/05/17 08:38:22;;;;;;;7.72;3.30;;;22.10;60.40;;;;;;4954866;28;89576;-86
2022/05/17 08:40:57;;;;;;;8.50;3.63;;;22.10;60.30;;;;;;4954675;28;90215;-85
2022/05/17 08:43:46;;;;;;;11.45;4.18;;;22.10;60.40;;;;;;4961547;28;88513;-86
2022/05/17 08:46:23;;;;;;;15.60;3.42;;;22.10;60.60;;;;;;4956071;28;89202;-85
2022/05/17 08:49:12;;;;;;;10.15;3.78;;;22.10;60.60;;;;;;4956154;28;90673;-86
2022/05/17 08:51:41;;;;;;;10.43;2.95;;;22.10;61.00;;;;;;4957583;28;90081;-87
2022/05/17 08:54:10;;;;;;;15.98;3.30;;;22.10;60.80;;;;;;4956500;28;87177;-86
2022/05/17 08:56:45;;;;;;;;;;;22.10;61.00;;;;;;4961789;28;87190;-88
2022/05/17 08:59:17;;;;;;;12.15;3.58;;;22.10;61.00;;;;;;4961533;28;87893;-88
2022/05/17 09:01:53;;;;;;;11.65;3.50;;;22.10;61.50;;;;;;4960222;28;90285;-87
2022/05/17 09:04:24;;;;;;;6.53;3.28;;;22.10;61.80;;;;;;4963121;28;87854;-87
2022/05/17 09:07:09;;;;;;;12.63;3.55;;;22.10;61.80;;;;;;4962871;28;87389;-86
2022/05/17 09:10:04;;;;;;;10.50;3.42;;;22.10;61.90;;;;;;4961774;28;91274;-87
2022/05/17 09:12:52;;;;;;;11.23;3.33;;;22.10;61.60;;;;;;4957923;28;91378;-85
2022/05/17 09:15:18;;;;;;;13.45;3.83;;;22.20;62.50;;;;;;4959191;28;87276;-85
2022/05/17 09:17:45;;;;;;;14.13;3.85;;;22.20;62.40;;;;;;4957098;28;89178;-85
2022/05/17 09:20:21;;;;;;;9.60;3.70;;;22.20;61.90;;;;;;4957488;28;90741;-86
2022/05/17 09:22:47;;;;;;;11.68;3.00;;;22.20;62.10;;;;;;4955966;28;90244;-86
2022/05/17 09:25:20;;;;;;;8.80;3.40;;;22.20;61.90;;;;;;4959422;28;87868;-85
2022/05/17 09:27:49;;;;;;;8.73;3.42;;;22.20;61.50;;;;;;4957183;28;89554;-87
2022/05/17 09:30:21;;;;;;;15.85;3.70;;;22.20;61.40;;;;;;4961211;28;88606;-85
2022/05/17 09:32:48;;;;;;;11.10;3.40;;;22.20;61.10;;;;;;4957254;28;89995;-85
2022/05/17 09:35:21;;;;;;;9.73;3.28;;;22.20;61.20;;;;;;4955962;28;88158;-87
2022/05/17 09:37:52;;;;;;;11.73;3.63;;;22.20;60.70;;;;;;4956608;28;87907;-84
2022/05/17 09:40:27;;;;;;;11.60;3.53;;;22.20;60.50;;;;;;4957243;28;89946;-84
2022/05/17 09:43:04;;;;;;;7.13;3.22;;;22.20;60.50;;;;;;4966967;28;90417;-84
2022/05/17 09:45:39;;;;;;;10.13;3.00;;;22.30;60.60;;;;;;4956577;28;88055;-84
2022/05/17 09:48:07;;;;;;;10.10;3.40;;;22.20;60.20;;;;;;4950693;28;90222;-83
2022/05/17 09:53:59;;;;;;;16.40;3.83;;;22.20;60.50;;;;;;4956767;28;87048;-82
2022/05/17 09:56:27;;;;;;;11.88;3.97;;;22.30;60.70;;;;;;4949513;28;87755;-86
2022/05/17 09:58:53;;;;;;;12.70;3.67;;;22.30;60.20;;;;;;4958096;28;87541;-84
2022/05/17 10:01:21;;;;;;;6.93;3.22;;;22.30;60.60;;;;;;4961811;28;89090;-84
2022/05/17 10:04:11;;;;;;;12.05;3.65;;;22.30;60.50;;;;;;4952663;28;91401;-83
2022/05/17 10:06:48;;;;;;;9.50;2.92;;;22.30;60.70;;;;;;4954724;28;87756;-86
2022/05/17 10:09:35;;;;;;;11.52;3.80;;;22.30;62.10;;;;;;4961921;28;89297;-84
2022/05/17 10:12:08;;;;;;;8.52;3.55;;;22.30;60.80;;;;;;4959951;28;90915;-85
2022/05/17 10:15:03;;;;;;;11.18;3.85;;;22.30;61.20;;;;;;4954576;28;89259;-85
2022/05/17 10:17:55;;;;;;;14.52;3.85;;;22.30;61.30;;;;;;4957377;28;87372;-85
2022/05/17 10:20:26;;;;;;;15.32;4.32;;;22.40;61.90;;;;;;4954315;28;89406;-87
2022/05/17 10:23:00;;;;;;;14.20;5.13;;;22.40;61.50;;;;;;4959939;28;90769;-86
2022/05/17 10:25:44;;;;;;;32.78;5.38;;;22.40;61.60;;;;;;4964288;28;89877;-87
2022/05/17 10:28:41;;;;;;;20.73;4.93;;;22.40;62.40;;;;;;4956226;28;88884;-86
2022/05/17 10:31:35;;;;;;;15.48;4.05;;;22.40;62.70;;;;;;4960352;28;87876;-86
2022/05/17 10:34:20;;;;;;;14.38;4.35;;;22.40;62.10;;;;;;4960562;28;87963;-88
2022/05/17 10:36:50;;;;;;;11.45;3.90;;;22.40;62.60;;;;;;4960716;28;90929;-87
2022/05/17 10:39:27;;;;;;;16.10;3.80;;;22.40;61.90;;;;;;4968188;28;87216;-87
2022/05/17 10:41:54;;;;;;;17.60;4.38;;;22.40;61.60;;;;;;4961088;28;89326;-88
2022/05/17 10:44:21;;;;;;;16.15;4.43;;;22.40;61.70;;;;;;4960619;28;90461;-87
2022/05/17 10:46:53;;;;;;;8.82;3.53;;;22.40;62.00;;;;;;4959423;28;89125;-88
2022/05/17 10:49:43;;;;;;;11.13;4.35;;;22.40;61.80;;;;;;4959357;28;87323;-87
2022/05/17 10:52:25;;;;;;;12.07;3.80;;;22.40;61.60;;;;;;4956168;28;89726;-86
2022/05/17 10:55:27;;;;;;;8.15;3.20;;;22.40;61.50;;;;;;4961968;28;91910;-87
2022/05/17 10:58:03;;;;;;;10.32;3.65;;;22.50;62.00;;;;;;4957017;28;91416;-86
2022/05/17 11:00:57;;;;;;;9.50;4.05;;;22.40;61.40;;;;;;4979951;28;87579;-88
2022/05/17 11:03:43;;;;;;;12.23;4.07;;;22.50;60.60;;;;;;4959902;28;89722;-86
2022/05/17 11:06:27;;;;;;;6.32;2.90;;;22.40;60.80;;;;;;4975714;28;89666;-88
2022/05/17 11:09:02;;;;;;;10.77;3.38;;;22.40;60.90;;;;;;4958479;28;90548;-87
2022/05/17 11:11:46;;;;;;;7.50;3.67;;;22.40;60.90;;;;;;4966041;28;87797;-88
2022/05/17 11:14:22;;;;;;;16.95;3.97;;;22.40;61.40;;;;;;4965163;28;87014;-88
2022/05/17 11:17:32;;;;;;;17.92;4.10;;;22.40;61.10;;;;;;4960109;28;90409;-88
2022/05/17 11:20:34;;;;;;;10.82;3.92;;;22.40;60.70;;;;;;4961236;28;90579;-88
2022/05/17 11:23:31;;;;;;;14.80;4.18;;;22.50;60.00;;;;;;4929041;28;88294;-87
2022/05/17 11:26:33;;;;;;;10.95;3.72;;;22.40;60.20;;;;;;4960398;28;89076;-86
2022/05/17 11:29:02;;;;;;;8.07;3.67;;;22.50;60.20;;;;;;4965532;28;90234;-87
2022/05/17 11:31:58;;;;;;;6.38;3.42;;;22.40;60.60;;;;;;4962237;28;89504;-86
2022/05/17 11:34:30;;;;;;;9.80;3.42;;;22.40;61.00;;;;;;4962592;28;87481;-88
2022/05/17 11:37:36;;;;;;;11.07;3.67;;;22.50;61.10;;;;;;4980325;28;89149;-88
2022/05/17 11:40:05;;;;;;;15.15;4.07;;;22.50;61.60;;;;;;4954814;28;90237;-87
2022/05/17 11:42:36;;;;;;;9.10;3.58;;;22.50;60.90;;;;;;4977700;28;91001;-89
2022/05/17 11:45:23;;;;;;;10.25;4.10;;;22.50;61.90;;;;;;4965911;28;87464;-89
2022/05/17 11:47:51;;;;;;;7.57;3.20;;;22.40;62.20;;;;;;4966299;28;87511;-89
2022/05/17 11:50:22;;;;;;;6.90;3.30;;;22.40;62.60;;;;;;4962858;28;91580;-88
2022/05/17 11:53:25;;;;;;;6.38;3.60;;;22.40;62.30;;;;;;4964986;28;91028;-90
2022/05/17 11:56:11;;;;;;;9.60;3.92;;;22.40;62.40;;;;;;4962603;28;87810;-86
2022/05/17 11:58:36;;;;;;;8.15;3.65;;;22.40;62.50;;;;;;4962997;28;90321;-87
2022/05/17 12:01:02;;;;;;;9.65;3.15;;;22.40;62.20;;;;;;4963749;28;88227;-87
2022/05/17 12:03:50;;;;;;;7.65;3.30;;;22.40;62.00;;;;;;4960886;28;90076;-88
2022/05/17 12:06:48;;;;;;;8.70;3.78;;;22.50;61.90;;;;;;4963472;28;87085;-86
2022/05/17 12:09:23;;;;;;;8.07;3.40;;;22.50;61.90;;;;;;4945508;28;89108;-87
2022/05/17 12:12:00;;;;;;;5.35;3.88;;;22.50;61.30;;;;;;4962612;28;90220;-88
2022/05/17 12:14:48;;;;;;;7.15;3.53;;;22.50;61.60;;;;;;4977396;28;90154;-88
2022/05/17 12:17:46;;;;;;;7.03;3.05;;;22.50;60.90;;;;;;4959299;28;87941;-90
2022/05/17 12:20:29;;;;;;;9.33;3.57;;;22.50;59.40;;;;;;4934729;28;89257;-88
2022/05/17 12:23:03;;;;;;;7.25;2.88;;;22.50;59.50;;;;;;4961593;28;87947;-87
2022/05/17 12:25:34;;;;;;;10.27;3.13;;;22.50;59.50;;;;;;4958591;28;89832;-87
2022/05/17 12:28:01;;;;;;;7.45;2.60;;;22.50;59.60;;;;;;4963768;28;87155;-88
2022/05/17 12:33:52;;;;;;;8.18;2.92;;;22.50;59.60;;;;;;4959297;28;87319;-88
2022/05/17 12:36:25;;;;;;;8.38;3.25;;;22.50;59.60;;;;;;4960480;28;88085;-87
2022/05/17 12:44:44;;;;;;;6.80;3.00;;;22.40;59.70;;;;;;4963692;28;88660;-86
2022/05/17 12:47:18;;;;;;;6.65;3.28;;;22.50;60.00;;;;;;4961035;28;90097;-87
2022/05/17 12:49:45;;;;;;;8.48;3.80;;;22.50;60.30;;;;;;4969678;28;87518;-88
2022/05/17 12:52:17;;;;;;;6.70;2.67;;;22.50;60.30;;;;;;4959630;28;87899;-87
2022/05/17 12:54:49;;;;;;;6.63;3.33;;;22.50;59.70;;;;;;4965211;28;87416;-86
2022/05/17 12:57:21;;;;;;;8.98;3.42;;;22.50;59.90;;;;;;4960420;28;87811;-86
2022/05/17 12:59:50;;;;;;;8.00;2.97;;;22.50;59.80;;;;;;4968037;28;87310;-87
2022/05/17 13:02:25;;;;;;;8.10;3.42;;;22.50;59.70;;;;;;4954032;28;89042;-87
2022/05/17 13:04:51;;;;;;;10.80;3.90;;;22.50;59.70;;;;;;4958874;28;91018;-86
2022/05/17 13:07:21;;;;;;;12.93;3.42;;;22.50;59.90;;;;;;4959356;28;90069;-86
2022/05/17 13:09:59;;;;;;;14.75;3.63;;;22.50;59.70;;;;;;4961773;28;88999;-85
2022/05/17 13:12:28;;;;;;;9.07;3.90;;;22.50;59.90;;;;;;4968665;28;89641;-86
2022/05/17 13:14:54;;;;;;;8.98;3.45;;;22.50;59.70;;;;;;4959622;28;90989;-87
2022/05/17 13:17:28;;;;;;;12.63;3.35;;;22.50;59.60;;;;;;4959772;28;88987;-86
2022/05/17 13:19:59;;;;;;;9.80;3.55;;;22.50;59.70;;;;;;4961811;28;87581;-87
2022/05/17 13:22:26;;;;;;;6.90;3.55;;;22.50;59.70;;;;;;4960418;28;89654;-87